CMA CGM Herodote — MFEP — position and weather

sailwx.info

Track history (hours):
 
Tides and Currents Weather Stations Pressure Air Temp Water Temp Dewpoint Dewpoint Depression Visibility Wind Speed Wind Dir Waves Ship Positions

CMA CGM Herodote

Last reported at 2017-May-23 12:26 UTC. Time now 2017-May-23 17:00 UTC.
Position N 39°26' W 000°19'.

Length 170 m; draft 5.7 m.

Type: Cargo ship. MMSI: 235051085.

Date/timePositionNaut miles runAvg speedWind from/ knotsBaromVisibWave heightAir tempDewpointWater temp
2017-May-23 12:26N 39°26' W 000°19'0 0.0
2017-May-23 11:56N 39°26' W 000°19'0 0.0
2017-May-23 11:29N 39°26' W 000°19'0 0.0
2017-May-23 10:59N 39°26' W 000°19'0 0.0
2017-May-23 10:26N 39°26' W 000°19'0 0.0
2017-May-23 10:01N 39°26' W 000°19'1 2.7
2017-May-23 09:31N 39°25' W 000°17'2 0.9
2017-May-23 07:40N 39°24' W 000°17'0 0.0
2017-May-23 07:22N 39°24' W 000°17'0 0.1
2017-May-23 06:46N 39°24' W 000°17'0 0.0
2017-May-23 06:07N 39°24' W 000°17'0 0.2
2017-May-23 05:58N 39°24' W 000°17'0 0.2
2017-May-23 05:25N 39°24' W 000°17'0 0.0
2017-May-23 04:55N 39°24' W 000°17'0 0.5
2017-May-23 04:08N 39°24' W 000°17'1 4.0
2017-May-23 04:00N 39°24' W 000°16'3410.5
2017-May-23 00:44N 39°00' E 000°16'2810.9
2017-May-22 22:12N 38°41' E 000°42'211.8
2017-May-22 22:00N 38°39' E 000°44'612.0
2017-May-22 21:30N 38°35' E 000°50'712.1
2017-May-22 20:54N 38°30' E 000°56'512.4
2017-May-22 20:30N 38°27' E 001°01'612.4
2017-May-22 20:00N 38°22' E 001°07'612.3
2017-May-22 19:30N 38°18' E 001°12'612.4
2017-May-22 19:00N 38°14' E 001°18'612.4
2017-May-22 18:30N 38°10' E 001°24'612.4
2017-May-22 18:00N 38°05' E 001°30'712.5
2017-May-22 17:27N 38°00' E 001°36'2212.3
2017-May-22 15:42N 37°45' E 001°55'312.0
2017-May-22 15:29N 37°43' E 001°57'611.9
2017-May-22 15:00N 37°39' E 002°03'1312.7
2017-May-22 14:01N 37°31' E 002°14'714.0
2017-May-22 13:29N 37°25' E 002°21'713.5
2017-May-22 12:57N 37°20' E 002°27'613.2
2017-May-22 12:30N 37°16' E 002°32'713.6
2017-May-22 12:01N 37°12' E 002°38'713.7
2017-May-22 11:30N 37°07' E 002°45'713.7
2017-May-22 11:00N 37°03' E 002°52'713.7
2017-May-22 10:29N 36°59' E 002°59'612.2
2017-May-22 09:59N 36°54' E 003°03'612.2
2017-May-22 09:30N 36°49' E 003°07'4 8.0
2017-May-22 09:00N 36°46' E 003°04'0 0.1
2017-May-22 07:51N 36°46' E 003°04'0 0.0
2017-May-22 05:33N 36°46' E 003°04'0 0.0
2017-May-22 05:21N 36°46' E 003°04'0 0.0
2017-May-22 04:57N 36°46' E 003°04'0 0.0
2017-May-22 04:27N 36°46' E 003°04'0 0.0
2017-May-22 03:03N 36°46' E 003°04'0 0.0
2017-May-22 02:03N 36°46' E 003°04'0 0.0
2017-May-21 17:21N 36°46' E 003°04'0 0.0
2017-May-21 16:45N 36°46' E 003°04'0 0.0
2017-May-21 16:27N 36°46' E 003°04'0 0.0
2017-May-21 10:03N 36°46' E 003°04'0 0.0
2017-May-21 09:51N 36°46' E 003°04'0 0.0
2017-May-21 08:57N 36°46' E 003°04'0 0.0
2017-May-21 08:27N 36°46' E 003°04'0 0.0
2017-May-21 04:39N 36°46' E 003°04'0 0.0
2017-May-21 04:24N 36°46' E 003°04'0 0.0
2017-May-21 04:00N 36°46' E 003°04'0 0.0
2017-May-21 03:30N 36°46' E 003°04'0 0.0
2017-May-21 02:57N 36°46' E 003°04'0 0.0
2017-May-21 02:30N 36°46' E 003°04'0 0.0
2017-May-21 02:00N 36°46' E 003°04'0 0.0
2017-May-21 01:27N 36°46' E 003°04'0 0.0
2017-May-20 21:57N 36°46' E 003°04'0 0.0
2017-May-20 12:33N 36°46' E 003°04'0 0.0
2017-May-20 12:27N 36°46' E 003°04'0 0.0
2017-May-19 22:57N 36°46' E 003°04'0 0.0
2017-May-19 21:21N 36°46' E 003°04'93 3.4
2017-May-18 18:17N 36°56' E 004°59'510.5
2017-May-18 17:49N 36°54' E 005°05'310.2
2017-May-18 17:30N 36°51' E 005°08'510.8
2017-May-18 17:00N 36°46' E 005°08'  
2017-May-14 19:21N 36°43' E 005°12'0 0.0
2017-May-14 13:03N 36°43' E 005°12'0 0.0
2017-May-14 12:54N 36°43' E 005°12'0 0.0
2017-May-14 11:03N 36°42' E 005°12'0 0.1
2017-May-14 10:48N 36°43' E 005°12'0 0.0
2017-May-14 10:30N 36°43' E 005°12'0 0.0
2017-May-14 09:48N 36°43' E 005°12'  
Track history (hours):
 
Tides and Currents Weather Stations Pressure Air Temp Water Temp Dewpoint Dewpoint Depression Visibility Wind Speed Wind Dir Waves Ship Positions

CMA CGM Herodote

Last reported at 2017-May-23 12:26 UTC. Time now 2017-May-23 17:00 UTC.
Position N 39°26' W 000°19'.

Length 170 m; draft 5.7 m.

Type: Cargo ship. MMSI: 235051085.

Date/timePositionNaut miles runAvg speedWind from/ knotsBaromVisibWave heightAir tempDewpointWater temp
2017-May-23 12:26N 39°26' W 000°19'0 0.0
2017-May-23 11:56N 39°26' W 000°19'0 0.0
2017-May-23 11:29N 39°26' W 000°19'0 0.0
2017-May-23 10:59N 39°26' W 000°19'0 0.0
2017-May-23 10:26N 39°26' W 000°19'0 0.0
2017-May-23 10:01N 39°26' W 000°19'1 2.7
2017-May-23 09:31N 39°25' W 000°17'2 0.9
2017-May-23 07:40N 39°24' W 000°17'0 0.0
2017-May-23 07:22N 39°24' W 000°17'0 0.1
2017-May-23 06:46N 39°24' W 000°17'0 0.0
2017-May-23 06:07N 39°24' W 000°17'0 0.2
2017-May-23 05:58N 39°24' W 000°17'0 0.2
2017-May-23 05:25N 39°24' W 000°17'0 0.0
2017-May-23 04:55N 39°24' W 000°17'0 0.5
2017-May-23 04:08N 39°24' W 000°17'1 4.0
2017-May-23 04:00N 39°24' W 000°16'3410.5
2017-May-23 00:44N 39°00' E 000°16'2810.9
2017-May-22 22:12N 38°41' E 000°42'211.8
2017-May-22 22:00N 38°39' E 000°44'612.0
2017-May-22 21:30N 38°35' E 000°50'712.1
2017-May-22 20:54N 38°30' E 000°56'512.4
2017-May-22 20:30N 38°27' E 001°01'612.4
2017-May-22 20:00N 38°22' E 001°07'612.3
2017-May-22 19:30N 38°18' E 001°12'612.4
2017-May-22 19:00N 38°14' E 001°18'612.4
2017-May-22 18:30N 38°10' E 001°24'612.4
2017-May-22 18:00N 38°05' E 001°30'712.5
2017-May-22 17:27N 38°00' E 001°36'2212.3
2017-May-22 15:42N 37°45' E 001°55'312.0
2017-May-22 15:29N 37°43' E 001°57'611.9
2017-May-22 15:00N 37°39' E 002°03'1312.7
2017-May-22 14:01N 37°31' E 002°14'714.0
2017-May-22 13:29N 37°25' E 002°21'713.5
2017-May-22 12:57N 37°20' E 002°27'613.2
2017-May-22 12:30N 37°16' E 002°32'713.6
2017-May-22 12:01N 37°12' E 002°38'713.7
2017-May-22 11:30N 37°07' E 002°45'713.7
2017-May-22 11:00N 37°03' E 002°52'713.7
2017-May-22 10:29N 36°59' E 002°59'612.2
2017-May-22 09:59N 36°54' E 003°03'612.2
2017-May-22 09:30N 36°49' E 003°07'4 8.0
2017-May-22 09:00N 36°46' E 003°04'0 0.1
2017-May-22 07:51N 36°46' E 003°04'0 0.0
2017-May-22 05:33N 36°46' E 003°04'0 0.0
2017-May-22 05:21N 36°46' E 003°04'0 0.0
2017-May-22 04:57N 36°46' E 003°04'0 0.0
2017-May-22 04:27N 36°46' E 003°04'0 0.0
2017-May-22 03:03N 36°46' E 003°04'0 0.0
2017-May-22 02:03N 36°46' E 003°04'0 0.0
2017-May-21 17:21N 36°46' E 003°04'0 0.0
2017-May-21 16:45N 36°46' E 003°04'0 0.0
2017-May-21 16:27N 36°46' E 003°04'0 0.0
2017-May-21 10:03N 36°46' E 003°04'0 0.0
2017-May-21 09:51N 36°46' E 003°04'0 0.0
2017-May-21 08:57N 36°46' E 003°04'0 0.0
2017-May-21 08:27N 36°46' E 003°04'0 0.0
2017-May-21 04:39N 36°46' E 003°04'0 0.0
2017-May-21 04:24N 36°46' E 003°04'0 0.0
2017-May-21 04:00N 36°46' E 003°04'0 0.0
2017-May-21 03:30N 36°46' E 003°04'0 0.0
2017-May-21 02:57N 36°46' E 003°04'0 0.0
2017-May-21 02:30N 36°46' E 003°04'0 0.0
2017-May-21 02:00N 36°46' E 003°04'0 0.0
2017-May-21 01:27N 36°46' E 003°04'0 0.0
2017-May-20 21:57N 36°46' E 003°04'0 0.0
2017-May-20 12:33N 36°46' E 003°04'0 0.0
2017-May-20 12:27N 36°46' E 003°04'0 0.0
2017-May-19 22:57N 36°46' E 003°04'0 0.0
2017-May-19 21:21N 36°46' E 003°04'93 3.4
2017-May-18 18:17N 36°56' E 004°59'510.5
2017-May-18 17:49N 36°54' E 005°05'310.2
2017-May-18 17:30N 36°51' E 005°08'510.8
2017-May-18 17:00N 36°46' E 005°08'  
2017-May-14 19:21N 36°43' E 005°12'0 0.0
2017-May-14 13:03N 36°43' E 005°12'0 0.0
2017-May-14 12:54N 36°43' E 005°12'0 0.0
2017-May-14 11:03N 36°42' E 005°12'0 0.1
2017-May-14 10:48N 36°43' E 005°12'0 0.0
2017-May-14 10:30N 36°43' E 005°12'0 0.0
2017-May-14 09:48N 36°43' E 005°12'  

Dump ship's entire track history